Time;durP1;ratioP1;P1;durP2;ratioP2;P2;SDS_P1;SDS_P2;PMS_P1;PMS_P2;Temp;Humidity;BMP_temperature;BMP_pressure;BME280_temperature;BME280_humidity;BME280_pressure;Samples;Min_cycle;Max_cycle;Signal;HPM_P1;HPM_P2
2023/11/05 00:01:14;;;;;;;0.10;0.10;;;;;;;9.83;81.66;96853.41;7352958;19;20696;-58
2023/11/05 00:03:39;;;;;;;0.10;0.10;;;;;;;9.90;81.61;96867.59;7354521;19;20033;-58
2023/11/05 00:06:05;;;;;;;0.15;0.15;;;;;;;9.86;81.89;96855.75;7354515;19;20015;-58
2023/11/05 00:08:30;;;;;;;0.10;0.10;;;;;;;9.90;81.84;96857.19;7362643;19;20010;-58
2023/11/05 00:10:55;;;;;;;0.10;0.10;;;;;;;9.92;81.90;96865.69;7356389;19;20002;-59
2023/11/05 00:13:21;;;;;;;0.10;0.10;;;;;;;9.94;81.85;96869.00;7353756;19;20527;-58
2023/11/05 00:15:51;;;;;;;0.10;0.10;;;;;;;9.95;81.72;96875.03;7355951;19;20018;-59
2023/11/05 00:18:17;;;;;;;0.10;0.10;;;;;;;9.92;81.53;96870.91;7358233;19;20034;-59
2023/11/05 00:20:42;;;;;;;0.08;0.08;;;;;;;9.97;81.73;96879.16;7347987;19;20010;-58
2023/11/05 00:23:07;;;;;;;0.10;0.10;;;;;;;9.98;81.48;96880.81;7352250;19;20006;-58
2023/11/05 00:25:33;;;;;;;0.10;0.10;;;;;;;9.99;81.42;96881.66;7357385;19;20109;-57
2023/11/05 00:27:58;;;;;;;0.10;0.10;;;;;;;10.00;81.46;96889.34;7348303;19;20070;-59
2023/11/05 00:30:24;;;;;;;0.10;0.10;;;;;;;10.00;81.67;96884.16;7350324;19;20006;-57
2023/11/05 00:32:49;;;;;;;0.10;0.10;;;;;;;9.98;81.36;96886.03;7352020;19;20103;-58
2023/11/05 00:35:14;;;;;;;0.10;0.10;;;;;;;9.86;81.33;96866.19;7358294;19;20014;-58
2023/11/05 00:37:40;;;;;;;0.10;0.10;;;;;;;10.02;81.63;96892.66;7356185;19;20433;-57
2023/11/05 00:40:06;;;;;;;0.10;0.10;;;;;;;10.03;81.24;96904.72;7354655;19;20017;-58
2023/11/05 00:42:31;;;;;;;0.03;0.03;;;;;;;10.04;81.38;96901.19;7361053;19;20006;-59
2023/11/05 00:44:57;;;;;;;0.10;0.10;;;;;;;10.04;81.45;96906.41;7355766;19;20898;-57
2023/11/05 00:47:22;;;;;;;0.10;0.10;;;;;;;10.02;81.38;96902.25;7363126;19;20010;-59
2023/11/05 00:49:48;;;;;;;0.10;0.10;;;;;;;10.07;81.18;96911.34;7361985;19;20023;-58
2023/11/05 00:52:13;;;;;;;0.10;0.10;;;;;;;9.98;81.62;96899.06;7361239;19;20082;-59
2023/11/05 00:54:39;;;;;;;0.10;0.10;;;;;;;10.09;81.68;96914.69;7358447;19;20025;-58
2023/11/05 00:57:04;;;;;;;0.10;0.10;;;;;;;10.02;81.46;96903.06;7361398;19;20501;-58
2023/11/05 00:59:29;;;;;;;0.10;0.10;;;;;;;10.08;81.40;96917.38;7359699;19;20010;-59
2023/11/05 01:01:57;;;;;;;0.10;0.10;;;;;;;10.12;81.27;96924.00;7360813;19;20046;-57
2023/11/05 01:04:22;;;;;;;0.10;0.10;;;;;;;10.13;81.59;96923.88;7361557;19;20352;-58
2023/11/05 01:06:48;;;;;;;0.10;0.10;;;;;;;10.05;81.37;96912.44;7357981;19;20010;-56
2023/11/05 01:09:13;;;;;;;0.10;0.10;;;;;;;10.14;81.48;96932.56;7355848;19;20021;-57
2023/11/05 01:11:40;;;;;;;0.10;0.10;;;;;;;10.14;81.64;96936.00;7364224;19;20014;-57
2023/11/05 01:14:05;;;;;;;0.10;0.10;;;;;;;10.14;81.29;96938.59;7363017;19;20006;-58
2023/11/05 01:16:30;;;;;;;0.00;0.00;;;;;;;10.17;81.48;96939.28;7361405;19;20030;-56
2023/11/05 01:18:56;;;;;;;0.10;0.10;;;;;;;10.17;81.01;96949.72;7362018;19;20014;-57
2023/11/05 01:21:21;;;;;;;0.10;0.10;;;;;;;10.13;81.07;96947.34;7363985;19;20074;-58
2023/11/05 01:23:47;;;;;;;0.10;0.10;;;;;;;10.14;81.34;96941.19;7365022;19;20003;-57
2023/11/05 01:26:12;;;;;;;0.10;0.10;;;;;;;10.11;81.11;96943.22;7363578;19;20358;-57
2023/11/05 01:28:38;;;;;;;0.10;0.10;;;;;;;10.14;81.29;96950.81;7357850;19;20010;-57
2023/11/05 01:31:04;;;;;;;0.10;0.10;;;;;;;10.02;81.19;96933.53;7362182;19;20632;-58
2023/11/05 01:33:29;;;;;;;0.00;0.00;;;;;;;10.12;81.27;96953.50;7361439;19;20007;-57
2023/11/05 01:35:54;;;;;;;0.10;0.10;;;;;;;10.13;81.44;96951.72;7360307;19;20014;-57
2023/11/05 01:38:20;;;;;;;0.10;0.10;;;;;;;10.13;81.27;96954.34;7360986;19;20419;-58
2023/11/05 01:40:45;;;;;;;0.10;0.10;;;;;;;10.06;80.94;96946.19;7332582;19;20013;-59
2023/11/05 01:43:11;;;;;;;0.10;0.10;;;;;;;10.11;81.20;96954.47;7363093;19;20431;-58
2023/11/05 01:45:36;;;;;;;0.10;0.10;;;;;;;10.08;81.26;96959.91;7361912;19;20006;-58
2023/11/05 01:48:02;;;;;;;0.10;0.10;;;;;;;10.09;80.90;96977.25;7365389;19;20010;-59
2023/11/05 01:50:27;;;;;;;0.00;0.00;;;;;;;10.06;81.28;96977.47;7359566;19;20025;-57
2023/11/05 01:52:55;;;;;;;0.10;0.10;;;;;;;9.95;80.93;96964.47;7360376;19;20036;-58
2023/11/05 01:55:25;;;;;;;0.10;0.10;;;;;;;10.03;80.70;96984.69;7355609;19;20011;-58
2023/11/05 01:57:52;;;;;;;0.10;0.10;;;;;;;9.98;81.05;96992.88;7363024;19;20629;-58
2023/11/05 02:00:18;;;;;;;0.10;0.10;;;;;;;9.78;80.77;96972.78;7358681;19;20022;-58
2023/11/05 02:02:44;;;;;;;0.00;0.00;;;;;;;9.74;81.01;96976.63;7363708;19;20038;-57
2023/11/05 02:05:09;;;;;;;0.10;0.10;;;;;;;9.86;81.05;97005.13;7360148;19;20018;-56
2023/11/05 02:07:36;;;;;;;0.10;0.10;;;;;;;9.82;80.93;97008.09;7369677;19;20022;-58
2023/11/05 02:10:03;;;;;;;0.10;0.10;;;;;;;9.78;80.84;97011.88;7368114;19;20018;-58
2023/11/05 02:12:29;;;;;;;0.10;0.10;;;;;;;9.75;81.42;97012.13;7357796;19;20018;-58
2023/11/05 02:14:55;;;;;;;0.10;0.10;;;;;;;9.72;81.00;97020.19;7363482;19;20043;-58
2023/11/05 02:17:23;;;;;;;0.10;0.10;;;;;;;9.69;81.35;97020.44;7362837;19;20821;-58
2023/11/05 02:19:51;;;;;;;0.00;0.00;;;;;;;9.66;80.81;97025.88;7360131;19;20010;-58
2023/11/05 02:22:18;;;;;;;0.05;0.05;;;;;;;9.63;81.18;97021.75;7363129;19;20010;-58
2023/11/05 02:24:45;;;;;;;0.10;0.10;;;;;;;9.58;80.85;97035.13;7362002;19;20026;-57
2023/11/05 02:27:10;;;;;;;0.00;0.00;;;;;;;9.56;81.09;97041.38;7361348;19;20697;-58
2023/11/05 02:29:36;;;;;;;0.10;0.10;;;;;;;9.53;81.04;97036.38;7357854;19;20006;-58
2023/11/05 02:32:03;;;;;;;0.10;0.10;;;;;;;9.47;81.04;97042.91;7357186;19;20125;-58
2023/11/05 02:34:29;;;;;;;0.10;0.10;;;;;;;9.44;80.69;97043.16;7354408;19;20014;-58
2023/11/05 02:36:55;;;;;;;0.03;0.03;;;;;;;9.41;80.87;97043.38;7364644;19;20025;-58
2023/11/05 02:39:20;;;;;;;0.00;0.00;;;;;;;9.39;80.58;97050.50;7362867;19;20494;-58
2023/11/05 02:41:46;;;;;;;0.00;0.00;;;;;;;9.23;80.95;97029.19;7362242;19;20014;-56
2023/11/05 02:44:11;;;;;;;0.10;0.10;;;;;;;9.30;80.96;97045.97;7369303;19;20015;-58
2023/11/05 02:46:37;;;;;;;0.10;0.10;;;;;;;9.32;81.44;97054.50;7365544;19;20011;-58
2023/11/05 02:49:02;;;;;;;0.08;0.08;;;;;;;9.31;81.15;97052.84;7366757;19;20315;-58
2023/11/05 02:51:28;;;;;;;0.10;0.10;;;;;;;9.28;81.04;97050.47;7366161;19;20032;-58
2023/11/05 02:53:53;;;;;;;0.10;0.10;;;;;;;9.29;81.14;97059.94;7359884;19;20014;-58
2023/11/05 02:56:20;;;;;;;0.00;0.00;;;;;;;9.27;81.46;97054.00;7365566;19;20011;-59
2023/11/05 02:58:46;;;;;;;0.10;0.10;;;;;;;9.28;81.79;97055.69;7359341;19;20019;-57
2023/11/05 03:01:11;;;;;;;0.10;0.10;;;;;;;9.29;81.58;97059.94;7364719;19;20101;-57
2023/11/05 03:03:37;;;;;;;0.10;0.10;;;;;;;9.18;81.40;97052.94;7362749;19;20014;-58
2023/11/05 03:06:02;;;;;;;0.10;0.10;;;;;;;9.26;81.24;97075.78;7363924;19;20015;-58
2023/11/05 03:08:28;;;;;;;0.05;0.05;;;;;;;9.23;81.22;97076.03;7370962;19;20003;-56
2023/11/05 03:10:53;;;;;;;0.10;0.10;;;;;;;9.14;81.01;97063.69;7367704;19;20014;-57
2023/11/05 03:13:19;;;;;;;0.10;0.10;;;;;;;9.17;80.92;97074.69;7359682;19;20022;-57
2023/11/05 03:15:44;;;;;;;0.10;0.10;;;;;;;9.19;80.90;97085.00;7363094;19;20018;-59
2023/11/05 03:18:10;;;;;;;0.00;0.00;;;;;;;9.12;81.11;97086.41;7368105;19;20328;-58
2023/11/05 03:20:35;;;;;;;0.10;0.10;;;;;;;9.12;80.58;97089.00;7366289;19;20031;-58
2023/11/05 03:23:01;;;;;;;0.10;0.10;;;;;;;9.08;80.99;97088.41;7358990;19;20016;-56
2023/11/05 03:25:27;;;;;;;0.10;0.10;;;;;;;9.01;80.64;97088.03;7361972;19;20010;-57
2023/11/05 03:27:52;;;;;;;0.10;0.10;;;;;;;8.99;80.64;97097.72;7357855;19;20020;-58
2023/11/05 03:30:18;;;;;;;0.10;0.10;;;;;;;8.95;80.47;97092.88;7362479;19;20452;-57
2023/11/05 03:32:43;;;;;;;0.00;0.00;;;;;;;8.90;80.93;97094.97;7361570;19;20021;-58
2023/11/05 03:35:09;;;;;;;0.00;0.00;;;;;;;8.84;80.84;97091.06;7365341;19;20015;-58
2023/11/05 03:37:35;;;;;;;0.10;0.10;;;;;;;8.81;81.11;97104.28;7364591;19;20009;-57
2023/11/05 03:40:00;;;;;;;0.10;0.10;;;;;;;8.75;81.21;97102.13;7361507;19;20015;-57
2023/11/05 03:42:26;;;;;;;0.08;0.08;;;;;;;8.74;80.81;97110.88;7358842;19;20017;-58
2023/11/05 03:44:51;;;;;;;0.00;0.00;;;;;;;8.64;80.70;97099.47;7359359;19;20025;-58
2023/11/05 03:47:17;;;;;;;0.00;0.00;;;;;;;8.54;80.46;97115.75;7358402;19;20003;-57
2023/11/05 03:49:43;;;;;;;0.10;0.10;;;;;;;8.61;80.64;97103.13;7363631;19;20022;-58
2023/11/05 03:52:09;;;;;;;0.00;0.00;;;;;;;8.57;81.01;97110.34;7360433;19;20329;-58
2023/11/05 03:54:34;;;;;;;0.10;0.10;;;;;;;8.55;80.94;97117.41;7363365;19;20007;-58
2023/11/05 03:57:00;;;;;;;0.10;0.10;;;;;;;8.53;81.33;97121.88;7356153;19;20030;-58
2023/11/05 03:59:26;;;;;;;0.10;0.10;;;;;;;8.42;80.94;97111.44;7361669;19;20014;-58
2023/11/05 04:01:52;;;;;;;0.00;0.00;;;;;;;8.46;80.94;97128.44;7361937;19;20055;-58
2023/11/05 04:04:17;;;;;;;0.10;0.10;;;;;;;8.33;80.75;97112.03;7361597;19;20426;-57
2023/11/05 04:06:43;;;;;;;0.10;0.10;;;;;;;8.38;80.91;97122.16;7368190;19;20721;-57
2023/11/05 04:09:09;;;;;;;0.00;0.00;;;;;;;8.38;80.82;97129.94;7362522;19;20017;-57
2023/11/05 04:11:36;;;;;;;0.10;0.10;;;;;;;8.37;81.21;97136.09;7362124;19;20006;-57
2023/11/05 04:14:01;;;;;;;0.10;0.10;;;;;;;8.31;81.19;97129.50;7361940;19;20064;-58
2023/11/05 04:16:29;;;;;;;0.00;0.00;;;;;;;8.31;81.00;97132.09;7358138;19;20028;-58
2023/11/05 04:18:57;;;;;;;0.10;0.10;;;;;;;8.32;81.53;97132.00;7331411;19;20010;-58
2023/11/05 04:21:23;;;;;;;;;;;;;;;8.35;80.76;97136.16;7343659;19;20018;-58
2023/11/05 04:23:48;;;;;;;0.00;0.00;;;;;;;8.30;81.16;97133.03;7369806;19;19922;-57
2023/11/05 04:26:14;;;;;;;0.10;0.10;;;;;;;8.30;81.38;97138.25;7363191;19;20010;-58
2023/11/05 04:28:40;;;;;;;0.10;0.10;;;;;;;8.30;81.41;97143.44;7368887;19;20014;-59
2023/11/05 04:31:05;;;;;;;0.10;0.10;;;;;;;8.28;81.44;97146.16;7371401;19;20457;-58
2023/11/05 04:33:31;;;;;;;0.00;0.00;;;;;;;8.27;81.15;97154.06;7366601;19;20010;-58
2023/11/05 04:35:56;;;;;;;0.10;0.10;;;;;;;8.18;81.84;97152.13;7370490;19;20010;-59
2023/11/05 04:38:22;;;;;;;0.00;0.00;;;;;;;8.24;81.36;97156.88;7373727;19;20617;-57
2023/11/05 04:40:47;;;;;;;0.10;0.10;;;;;;;8.16;81.47;97149.63;7368064;19;20014;-58
2023/11/05 04:43:13;;;;;;;0.10;0.10;;;;;;;8.16;81.57;97147.03;7366372;19;20026;-58
2023/11/05 04:45:38;;;;;;;0.10;0.10;;;;;;;8.19;81.55;97157.19;7370351;19;20026;-58
2023/11/05 04:48:04;;;;;;;0.10;0.10;;;;;;;8.17;81.62;97164.28;7365173;19;20348;-58
2023/11/05 04:50:29;;;;;;;0.10;0.10;;;;;;;8.02;81.59;97144.56;7364315;19;20018;-58
2023/11/05 04:52:54;;;;;;;0.10;0.10;;;;;;;8.07;81.59;97158.88;7366635;19;20018;-58
2023/11/05 04:55:20;;;;;;;0.10;0.10;;;;;;;8.16;81.85;97174.75;7368110;19;20010;-58
2023/11/05 04:57:46;;;;;;;0.10;0.10;;;;;;;8.18;81.61;97181.53;7361042;19;20366;-58
2023/11/05 05:00:12;;;;;;;0.10;0.10;;;;;;;8.21;82.03;97185.66;7366856;19;20014;-58
2023/11/05 05:02:38;;;;;;;0.00;0.00;;;;;;;8.23;81.75;97183.81;7345916;19;20015;-57
2023/11/05 05:05:03;;;;;;;0.10;0.10;;;;;;;8.26;81.98;97188.78;7366493;19;20444;-56
2023/11/05 05:07:29;;;;;;;0.10;0.10;;;;;;;8.20;82.03;97181.41;7368499;19;20006;-58
2023/11/05 05:09:54;;;;;;;0.10;0.10;;;;;;;8.31;81.94;97191.88;7368282;19;20482;-58
2023/11/05 05:12:21;;;;;;;0.10;0.10;;;;;;;8.32;82.26;97194.41;7368236;19;20009;-58
2023/11/05 05:14:50;;;;;;;0.10;0.10;;;;;;;8.41;82.09;97208.53;7364987;19;20014;-58
2023/11/05 05:17:17;;;;;;;0.10;0.10;;;;;;;8.33;82.16;97188.25;7372043;19;20581;-57
2023/11/05 05:19:44;;;;;;;0.10;0.10;;;;;;;8.49;82.07;97216.66;7366234;19;20014;-58
2023/11/05 05:22:09;;;;;;;0.10;0.10;;;;;;;8.54;82.10;97224.97;7367599;19;20089;-56
2023/11/05 05:24:34;;;;;;;0.10;0.10;;;;;;;8.57;82.33;97219.56;7363981;19;20111;-58
2023/11/05 05:27:00;;;;;;;0.00;0.00;;;;;;;8.51;82.28;97204.34;7363800;19;20082;-58
2023/11/05 05:29:25;;;;;;;0.08;0.08;;;;;;;8.64;82.21;97219.94;7364408;19;20002;-58
2023/11/05 05:31:51;;;;;;;0.10;0.10;;;;;;;8.67;82.05;97216.28;7358720;19;20010;-58
2023/11/05 05:34:16;;;;;;;0.00;0.00;;;;;;;8.69;82.21;97214.41;7364709;19;20006;-58
2023/11/05 05:36:41;;;;;;;0.10;0.10;;;;;;;8.76;82.00;97229.47;7367511;19;20359;-58
2023/11/05 05:39:07;;;;;;;0.10;0.10;;;;;;;8.78;82.13;97224.19;7354425;19;20010;-57
2023/11/05 05:41:33;;;;;;;0.10;0.10;;;;;;;8.83;81.73;97235.91;7367086;19;20018;-58
2023/11/05 05:43:58;;;;;;;0.10;0.10;;;;;;;8.84;82.11;97231.53;7367077;19;20016;-58
2023/11/05 05:46:24;;;;;;;0.10;0.10;;;;;;;8.87;81.87;97246.94;7350706;19;20010;-56
2023/11/05 05:48:50;;;;;;;0.00;0.00;;;;;;;8.92;82.06;97249.19;7367760;19;20013;-59
2023/11/05 05:51:17;;;;;;;0.10;0.10;;;;;;;8.92;82.10;97252.66;7365926;19;20018;-59
2023/11/05 05:53:43;;;;;;;0.08;0.08;;;;;;;8.98;81.78;97254.81;7367565;19;20545;-58
2023/11/05 05:56:09;;;;;;;0.00;0.00;;;;;;;9.01;82.01;97264.16;7363529;19;20006;-57
2023/11/05 05:58:35;;;;;;;0.00;0.00;;;;;;;8.98;81.76;97265.22;7362904;19;20487;-57
2023/11/05 06:01:01;;;;;;;0.10;0.10;;;;;;;9.07;81.76;97274.97;7366010;19;20026;-59
2023/11/05 06:03:26;;;;;;;0.10;0.10;;;;;;;8.99;81.56;97263.44;7362206;19;20032;-58
2023/11/05 06:05:51;;;;;;;0.10;0.10;;;;;;;9.09;81.44;97283.50;7364977;19;20011;-58
2023/11/05 06:08:17;;;;;;;0.00;0.00;;;;;;;9.13;81.65;97283.28;7360787;19;20010;-58
2023/11/05 06:10:43;;;;;;;0.10;0.10;;;;;;;9.16;81.46;97293.47;7366764;19;20014;-58
2023/11/05 06:13:08;;;;;;;0.10;0.10;;;;;;;9.18;81.34;97296.81;7363493;19;19995;-58
2023/11/05 06:15:34;;;;;;;0.10;0.10;;;;;;;9.20;81.62;97303.56;7366473;19;20785;-58
2023/11/05 06:17:59;;;;;;;0.10;0.10;;;;;;;8.99;81.76;97266.88;7365069;19;20487;-58
2023/11/05 06:20:25;;;;;;;0.10;0.10;;;;;;;9.25;81.38;97311.03;7352254;19;20046;-56
2023/11/05 06:22:54;;;;;;;0.00;0.00;;;;;;;9.19;81.40;97288.88;7364811;19;20007;-58
2023/11/05 06:25:19;;;;;;;0.10;0.10;;;;;;;9.19;81.41;97298.47;7368690;19;20031;-58
2023/11/05 06:27:45;;;;;;;0.10;0.10;;;;;;;9.26;81.27;97304.88;7369809;19;20671;-59
2023/11/05 06:30:11;;;;;;;0.10;0.10;;;;;;;9.24;81.62;97297.19;7370972;19;20021;-58
2023/11/05 06:32:38;;;;;;;0.00;0.00;;;;;;;9.32;81.38;97317.47;7351270;19;20014;-56
2023/11/05 06:35:04;;;;;;;0.08;0.08;;;;;;;9.34;81.25;97318.19;7361109;19;20086;-56
2023/11/05 06:37:30;;;;;;;0.00;0.00;;;;;;;9.35;81.60;97325.06;7358075;19;20342;-58
2023/11/05 06:39:56;;;;;;;0.08;0.08;;;;;;;9.37;81.21;97328.38;7365648;19;20017;-58
2023/11/05 06:42:22;;;;;;;0.10;0.10;;;;;;;9.40;81.40;97335.16;7356107;19;20018;-58
2023/11/05 06:44:47;;;;;;;0.10;0.10;;;;;;;9.40;81.62;97333.38;7362446;19;20126;-59
2023/11/05 06:47:13;;;;;;;0.10;0.10;;;;;;;9.37;81.44;97333.59;7366299;19;20022;-59
2023/11/05 06:49:38;;;;;;;0.10;0.10;;;;;;;9.40;81.33;97343.78;7359428;19;20019;-58
2023/11/05 06:52:04;;;;;;;0.00;0.00;;;;;;;9.42;81.34;97341.06;7363573;19;20045;-57
2023/11/05 06:54:30;;;;;;;0.10;0.10;;;;;;;9.29;81.18;97325.50;7359894;19;20022;-58
2023/11/05 06:56:55;;;;;;;0.10;0.10;;;;;;;9.44;81.21;97360.03;7368034;19;20374;-58
2023/11/05 06:59:21;;;;;;;0.00;0.00;;;;;;;9.45;81.15;97359.91;7354221;19;20130;-58
2023/11/05 07:01:49;;;;;;;0.00;0.00;;;;;;;9.46;81.41;97371.16;7352587;19;20459;-59
2023/11/05 07:04:15;;;;;;;0.10;0.10;;;;;;;9.29;81.34;97343.72;7364682;19;20465;-58
2023/11/05 07:06:40;;;;;;;0.10;0.10;;;;;;;9.38;81.57;97363.06;7365301;19;22016;-57
2023/11/05 07:09:09;;;;;;;0.10;0.10;;;;;;;9.48;81.29;97383.16;7363337;19;20013;-58
2023/11/05 07:11:35;;;;;;;0.10;0.10;;;;;;;9.48;81.40;97390.97;7363540;19;20010;-56
2023/11/05 07:14:00;;;;;;;0.10;0.10;;;;;;;9.49;81.17;97384.81;7367280;19;20034;-59
2023/11/05 07:16:26;;;;;;;0.10;0.10;;;;;;;9.49;81.28;97392.63;7368906;19;20014;-59
2023/11/05 07:18:52;;;;;;;0.10;0.10;;;;;;;9.51;81.53;97395.94;7364537;19;20010;-59
2023/11/05 07:21:18;;;;;;;0.10;0.10;;;;;;;9.38;81.21;97382.16;7333806;19;20570;-58
2023/11/05 07:23:43;;;;;;;0.10;0.10;;;;;;;9.37;81.15;97375.25;7362753;19;20010;-57
2023/11/05 07:26:10;;;;;;;0.00;0.00;;;;;;;9.53;81.48;97396.69;7361816;19;20015;-58
2023/11/05 07:28:36;;;;;;;0.10;0.10;;;;;;;9.55;81.55;97404.38;7363058;19;20626;-58
2023/11/05 07:31:01;;;;;;;0.10;0.10;;;;;;;9.56;81.48;97398.22;7357420;19;20003;-59
2023/11/05 07:33:27;;;;;;;0.10;0.10;;;;;;;9.56;81.35;97396.44;7359804;19;20056;-58
2023/11/05 07:35:52;;;;;;;0.10;0.10;;;;;;;9.56;81.40;97401.66;7360162;19;20074;-59
2023/11/05 07:38:18;;;;;;;0.10;0.10;;;;;;;9.57;81.38;97405.91;7356067;19;20031;-59
2023/11/05 07:40:43;;;;;;;0.10;0.10;;;;;;;9.54;81.33;97406.16;7360716;19;20460;-58
2023/11/05 07:43:09;;;;;;;0.10;0.10;;;;;;;9.46;81.26;97399.81;7361463;19;20010;-57
2023/11/05 07:45:34;;;;;;;0.00;0.00;;;;;;;9.57;81.08;97418.09;7358093;19;20574;-56
2023/11/05 07:48:00;;;;;;;0.10;0.10;;;;;;;9.56;81.31;97425.09;7356822;19;20038;-58
2023/11/05 07:50:26;;;;;;;0.10;0.10;;;;;;;9.55;81.06;97426.03;7360346;19;20029;-58
2023/11/05 07:52:52;;;;;;;0.10;0.10;;;;;;;9.56;81.31;97425.09;7358689;19;20009;-58
2023/11/05 07:55:17;;;;;;;0.10;0.10;;;;;;;9.56;81.43;97430.31;7366027;19;20011;-59
2023/11/05 07:57:43;;;;;;;0.15;0.15;;;;;;;9.56;81.28;97443.34;7365980;19;20023;-59
2023/11/05 08:00:15;;;;;;;0.10;0.10;;;;;;;9.59;81.61;97447.50;7368113;19;21073;-57
2023/11/05 08:02:49;;;;;;;0.10;0.10;;;;;;;9.21;81.15;97390.28;7364578;19;20038;-57
2023/11/05 08:05:15;;;;;;;0.10;0.10;;;;;;;9.60;81.45;97447.38;7369970;19;20010;-58
2023/11/05 08:07:41;;;;;;;0.10;0.10;;;;;;;9.60;81.31;97438.75;7368655;19;20102;-58
2023/11/05 08:10:06;;;;;;;0.10;0.10;;;;;;;9.65;81.43;97452.28;7368577;19;20122;-59
2023/11/05 08:12:33;;;;;;;0.10;0.10;;;;;;;9.64;81.35;97450.63;7364705;19;20113;-58
2023/11/05 08:14:58;;;;;;;0.10;0.10;;;;;;;9.66;81.35;97453.09;7367994;19;20418;-58
2023/11/05 08:17:24;;;;;;;0.08;0.08;;;;;;;9.69;81.47;97453.72;7374109;19;20082;-58
2023/11/05 08:19:50;;;;;;;0.00;0.00;;;;;;;9.72;81.63;97458.69;7360391;19;20007;-58
2023/11/05 08:22:16;;;;;;;0.10;0.10;;;;;;;9.59;81.28;97437.91;7366309;19;20018;-58
2023/11/05 08:24:41;;;;;;;0.10;0.10;;;;;;;9.79;81.48;97470.38;7366859;19;20018;-58
2023/11/05 08:27:06;;;;;;;0.10;0.10;;;;;;;9.83;81.34;97486.59;7370714;19;20031;-57
2023/11/05 08:29:33;;;;;;;0.10;0.10;;;;;;;9.86;81.33;97486.41;7362821;19;20019;-58
2023/11/05 08:31:58;;;;;;;0.10;0.10;;;;;;;9.89;81.22;97486.19;7365465;19;20031;-59
2023/11/05 08:34:24;;;;;;;0.05;0.05;;;;;;;9.91;81.29;97489.50;7359222;19;20416;-59
2023/11/05 08:36:49;;;;;;;0.10;0.10;;;;;;;9.94;81.19;97491.91;7369685;19;20471;-58
2023/11/05 08:39:19;;;;;;;0.10;0.10;;;;;;;9.97;81.24;97494.28;7364856;19;20037;-58
2023/11/05 08:41:45;;;;;;;0.10;0.10;;;;;;;9.99;81.10;97502.00;7362296;19;20017;-58
2023/11/05 08:44:10;;;;;;;0.05;0.05;;;;;;;10.03;80.85;97503.44;7372087;19;20410;-58
2023/11/05 08:46:35;;;;;;;0.00;0.00;;;;;;;10.05;80.92;97512.81;7368106;19;20007;-58
2023/11/05 08:49:02;;;;;;;0.10;0.10;;;;;;;10.07;80.75;97510.94;7368994;19;20026;-59
2023/11/05 08:51:28;;;;;;;0.10;0.10;;;;;;;10.10;81.01;97513.31;7367510;19;20012;-57
2023/11/05 08:53:54;;;;;;;0.10;0.10;;;;;;;10.12;80.99;97519.25;7375749;19;20494;-57
2023/11/05 08:56:20;;;;;;;0.10;0.10;;;;;;;10.12;80.83;97514.03;7351391;19;20002;-59
2023/11/05 08:58:45;;;;;;;0.00;0.00;;;;;;;10.19;80.98;97518.81;7369168;19;20017;-58
2023/11/05 09:01:12;;;;;;;0.10;0.10;;;;;;;10.22;81.02;97521.19;7364736;19;20010;-59
2023/11/05 09:03:37;;;;;;;0.10;0.10;;;;;;;10.24;80.89;97528.03;7365874;19;20478;-58
2023/11/05 09:06:03;;;;;;;0.05;0.05;;;;;;;10.28;80.90;97523.38;7367375;19;20005;-58
2023/11/05 09:08:28;;;;;;;0.10;0.10;;;;;;;10.31;81.09;97533.63;7364721;19;20002;-58
2023/11/05 09:10:53;;;;;;;0.10;0.10;;;;;;;10.33;81.07;97536.94;7365095;19;20046;-57
2023/11/05 09:13:19;;;;;;;0.10;0.10;;;;;;;10.34;80.92;97538.59;7363471;19;20003;-58
2023/11/05 09:15:49;;;;;;;0.10;0.10;;;;;;;10.40;80.64;97543.38;7366857;19;20455;-57
2023/11/05 09:18:15;;;;;;;0.10;0.10;;;;;;;10.42;80.66;97551.94;7367996;19;20019;-59
2023/11/05 09:20:40;;;;;;;0.10;0.10;;;;;;;10.47;80.95;97556.81;7365807;19;20017;-59
2023/11/05 09:23:06;;;;;;;0.10;0.10;;;;;;;10.48;80.63;97561.91;7363174;19;20362;-57
2023/11/05 09:25:31;;;;;;;0.00;0.00;;;;;;;10.53;80.55;97553.75;7358766;19;20006;-57
2023/11/05 09:27:56;;;;;;;0.10;0.10;;;;;;;10.55;80.52;97563.16;7365612;19;20034;-55
2023/11/05 09:30:22;;;;;;;0.10;0.10;;;;;;;10.58;80.69;97562.91;7368537;19;21228;-58
2023/11/05 09:32:47;;;;;;;0.00;0.00;;;;;;;10.60;80.56;97563.66;7359645;19;20814;-58
2023/11/05 09:35:13;;;;;;;0.10;0.10;;;;;;;10.58;80.54;97556.84;7363791;19;20070;-58
2023/11/05 09:37:40;;;;;;;0.05;0.05;;;;;;;10.70;80.77;97573.41;7362314;19;20418;-59
2023/11/05 09:40:06;;;;;;;;;;;;;;;10.81;81.14;97568.22;7363118;19;20022;-59
2023/11/05 09:42:38;;;;;;;0.10;0.10;;;;;;;10.82;80.64;97577.72;7355184;19;19910;-58
2023/11/05 09:45:05;;;;;;;0.10;0.10;;;;;;;10.88;80.78;97577.25;7368127;19;20081;-59
2023/11/05 09:47:33;;;;;;;0.10;0.10;;;;;;;10.93;80.36;97572.53;7353790;19;20591;-58
2023/11/05 09:49:59;;;;;;;0.10;0.10;;;;;;;10.97;80.37;97579.19;7362066;19;20600;-57
2023/11/05 09:52:28;;;;;;;0.10;0.10;;;;;;;11.06;80.17;97585.53;7336608;19;20017;-58
2023/11/05 09:54:53;;;;;;;0.10;0.10;;;;;;;11.08;79.93;97583.63;7359414;19;20030;-58
2023/11/05 09:57:19;;;;;;;0.10;0.10;;;;;;;11.16;80.42;97589.13;7360825;19;20006;-59
2023/11/05 09:59:47;;;;;;;0.08;0.08;;;;;;;11.21;80.01;97591.38;7364360;19;20421;-57
2023/11/05 10:02:13;;;;;;;;;;;;;;;11.34;80.57;97594.72;7359934;19;20025;-59
2023/11/05 10:04:39;;;;;;;0.00;0.00;;;;;;;11.24;80.10;97585.91;7363970;19;19930;-58
2023/11/05 10:07:04;;;;;;;0.10;0.10;;;;;;;11.36;80.20;97595.47;7356433;19;20507;-59
2023/11/05 10:09:30;;;;;;;0.10;0.10;;;;;;;11.40;79.85;97607.31;7353210;19;20023;-58
2023/11/05 10:11:55;;;;;;;0.10;0.10;;;;;;;11.34;79.95;97590.31;7358763;19;20006;-58
2023/11/05 10:14:21;;;;;;;0.10;0.10;;;;;;;11.46;79.75;97606.06;7356070;19;20027;-58
2023/11/05 10:16:47;;;;;;;0.10;0.10;;;;;;;11.48;79.73;97602.34;7358398;19;20320;-58
2023/11/05 10:19:12;;;;;;;0.10;0.10;;;;;;;11.51;79.68;97603.91;7356973;19;20038;-58
2023/11/05 10:21:38;;;;;;;0.10;0.10;;;;;;;11.55;79.71;97611.38;7360612;19;20010;-59
2023/11/05 10:24:05;;;;;;;0.08;0.08;;;;;;;11.58;79.43;97613.78;7358142;19;20014;-58
2023/11/05 10:26:33;;;;;;;0.10;0.10;;;;;;;11.59;79.66;97612.00;7364194;19;20010;-59
2023/11/05 10:29:00;;;;;;;0.08;0.08;;;;;;;11.61;79.66;97616.16;7359955;19;20022;-58
2023/11/05 10:31:27;;;;;;;0.10;0.10;;;;;;;11.63;79.46;97619.47;7359181;19;20078;-59
2023/11/05 10:33:54;;;;;;;0.10;0.10;;;;;;;11.66;79.52;97619.25;7356909;19;20025;-59
2023/11/05 10:36:20;;;;;;;0.10;0.10;;;;;;;11.68;79.44;97622.56;7356927;19;20014;-58
2023/11/05 10:38:48;;;;;;;0.10;0.10;;;;;;;11.73;79.81;97624.03;7363708;19;20015;-59
2023/11/05 10:41:15;;;;;;;0.10;0.10;;;;;;;11.78;79.96;97632.34;7360049;19;20010;-59
2023/11/05 10:43:41;;;;;;;0.10;0.10;;;;;;;11.81;79.93;97638.16;7355830;19;20010;-57
2023/11/05 10:46:07;;;;;;;0.10;0.10;;;;;;;11.82;79.81;97639.03;7364219;19;20014;-58
2023/11/05 10:48:35;;;;;;;0.03;0.03;;;;;;;11.85;79.47;97644.00;7363957;19;20450;-59
2023/11/05 10:51:02;;;;;;;0.10;0.10;;;;;;;11.70;79.33;97631.13;7347381;19;20006;-57
2023/11/05 10:53:28;;;;;;;0.10;0.10;;;;;;;11.83;79.77;97645.91;7360594;19;20021;-57
2023/11/05 10:55:53;;;;;;;0.10;0.10;;;;;;;11.79;79.68;97654.91;7369467;19;20438;-55
2023/11/05 10:58:22;;;;;;;0.10;0.10;;;;;;;11.91;79.26;97670.53;7357958;19;20019;-57
2023/11/05 11:00:56;;;;;;;0.10;0.10;;;;;;;11.97;79.46;97674.47;7363186;19;20014;-58
2023/11/05 11:03:23;;;;;;;0.00;0.00;;;;;;;11.97;79.44;97677.09;7358310;19;20033;-57
2023/11/05 11:05:48;;;;;;;0.10;0.10;;;;;;;12.01;79.11;97685.50;7354924;19;20824;-58
2023/11/05 11:08:16;;;;;;;0.10;0.10;;;;;;;12.04;79.25;97680.88;7358960;19;20461;-58
2023/11/05 11:10:42;;;;;;;;;;;;;;;12.20;80.11;97686.59;7357820;19;20360;-58
2023/11/05 11:13:12;;;;;;;0.10;0.10;;;;;;;12.30;79.98;97688.50;7352661;19;20005;-58
2023/11/05 11:15:39;;;;;;;0.10;0.10;;;;;;;12.42;79.81;97684.94;7359754;19;20022;-58
2023/11/05 11:18:08;;;;;;;0.10;0.10;;;;;;;12.59;79.03;97686.22;7356463;19;20011;-58
2023/11/05 11:20:33;;;;;;;0.10;0.10;;;;;;;12.72;79.00;97693.00;7356710;19;20621;-58
2023/11/05 11:23:03;;;;;;;0.13;0.13;;;;;;;12.97;79.05;97691.00;7356880;19;20017;-57
2023/11/05 11:25:33;;;;;;;0.10;0.10;;;;;;;13.10;78.28;97675.13;7356326;19;20243;-59
2023/11/05 11:27:59;;;;;;;0.10;0.10;;;;;;;13.39;77.92;97688.53;7357905;19;20022;-58
2023/11/05 11:30:25;;;;;;;0.10;0.10;;;;;;;13.64;77.79;97689.94;7356929;19;20086;-57
2023/11/05 11:32:52;;;;;;;0.10;0.10;;;;;;;13.87;76.84;97685.38;7359264;19;20037;-58